Time;durP1;ratioP1;P1;durP2;ratioP2;P2;SDS_P1;SDS_P2;PMS_P1;PMS_P2;Temp;Humidity;BMP_temperature;BMP_pressure;BME280_temperature;BME280_humidity;BME280_pressure;Samples;Min_cycle;Max_cycle;Signal;HPM_P1;HPM_P2
2022/11/05 00:10:22;;;;;;;1.43;1.30;;;;;;;10.96;95.51;99142.91;5051847;28;20584;-73
2022/11/05 00:18:19;;;;;;;0.70;0.70;;;;;;;10.75;96.49;99118.06;5051344;28;20187;-73
2022/11/05 00:20:46;;;;;;;0.80;0.80;;;;;;;10.83;96.32;99131.44;5051530;28;20219;-73
2022/11/05 00:25:58;;;;;;;0.60;0.60;;;;;;;10.81;96.33;99122.97;5051635;28;20203;-73
2022/11/05 00:28:26;;;;;;;0.70;0.70;;;;;;;10.81;96.07;99121.25;5051672;28;20716;-73
2022/11/05 00:30:54;;;;;;;0.60;0.60;;;;;;;10.85;95.81;99127.09;5050746;28;20193;-73
2022/11/05 00:33:21;;;;;;;0.50;0.50;;;;;;;10.89;95.52;99132.03;5051366;28;20227;-73
2022/11/05 00:35:48;;;;;;;0.53;0.53;;;;;;;10.95;95.01;99125.88;5050483;28;20205;-73
2022/11/05 00:38:15;;;;;;;0.70;0.70;;;;;;;11.00;94.46;99127.38;5051206;28;21382;-73
2022/11/05 00:40:42;;;;;;;1.47;1.47;;;;;;;11.00;94.63;99123.97;5050295;28;20585;-72
2022/11/05 00:45:54;;;;;;;0.80;0.80;;;;;;;11.01;94.68;99135.91;5051148;28;20199;-73
2022/11/05 00:51:06;;;;;;;4.23;1.37;;;;;;;10.96;93.59;99127.53;5050840;28;20284;-73
2022/11/05 00:53:33;;;;;;;0.57;0.57;;;;;;;10.90;92.75;99125.19;5051237;28;20197;-73
2022/11/05 00:56:00;;;;;;;2.40;1.03;;;;;;;10.92;92.04;99136.25;5051230;28;20665;-73
2022/11/05 00:58:28;;;;;;;0.70;0.70;;;;;;;10.83;91.79;99116.03;5051069;28;20202;-73
2022/11/05 01:00:57;;;;;;;0.50;0.50;;;;;;;10.88;91.05;99127.00;5050990;28;20578;-73
2022/11/05 01:03:26;;;;;;;0.60;0.60;;;;;;;10.82;91.57;99119.50;5051166;28;20691;-73
2022/11/05 01:05:55;;;;;;;0.70;0.70;;;;;;;10.74;91.81;99106.97;5050890;28;20201;-73
2022/11/05 01:08:25;;;;;;;0.83;0.83;;;;;;;10.74;91.44;99106.97;5050829;28;20766;-74
2022/11/05 01:10:54;;;;;;;0.60;0.60;;;;;;;10.68;91.49;99099.50;5050421;28;20334;-73
2022/11/05 01:13:23;;;;;;;0.70;0.70;;;;;;;10.70;91.50;99114.81;5048365;28;20696;-73
2022/11/05 01:15:50;;;;;;;0.67;0.67;;;;;;;10.64;92.19;99110.72;5050584;28;20278;-73
2022/11/05 01:18:20;;;;;;;0.80;0.80;;;;;;;10.66;91.92;99103.00;5050076;28;20200;-73
2022/11/05 01:20:47;;;;;;;0.67;0.67;;;;;;;10.66;92.04;99105.56;5050573;28;20203;-73
2022/11/05 01:23:14;;;;;;;0.50;0.50;;;;;;;10.58;91.85;99095.56;5049376;28;20197;-73
2022/11/05 01:25:41;;;;;;;0.60;0.60;;;;;;;10.66;91.72;99103.00;5050417;28;20205;-73
2022/11/05 01:28:08;;;;;;;0.50;0.50;;;;;;;10.65;91.86;99101.31;5050373;28;20220;-73
2022/11/05 01:30:36;;;;;;;0.83;0.83;;;;;;;10.61;91.83;99092.06;5050395;28;20228;-73
2022/11/05 01:33:03;;;;;;;1.00;1.00;;;;;;;10.49;91.69;99073.69;5050468;28;20196;-73
2022/11/05 01:35:31;;;;;;;0.50;0.50;;;;;;;10.64;91.51;99089.38;5049409;28;20262;-73
2022/11/05 01:37:58;;;;;;;1.00;1.00;;;;;;;10.63;90.80;99088.53;5049163;28;20193;-73
2022/11/05 01:40:26;;;;;;;0.80;0.80;;;;;;;10.60;90.69;99078.41;5050107;28;20677;-73
2022/11/05 01:42:52;;;;;;;0.60;0.60;;;;;;;10.54;91.07;99083.75;5048262;28;20208;-73
2022/11/05 01:45:21;;;;;;;0.60;0.60;;;;;;;10.52;91.30;99077.84;5050522;28;20207;-73
2022/11/05 01:47:56;;;;;;;0.80;0.80;;;;;;;10.41;91.71;99070.53;5049922;28;20201;-73
2022/11/05 01:50:35;;;;;;;0.93;0.93;;;;;;;10.41;92.68;99075.66;5050121;28;20196;-74
2022/11/05 01:53:14;;;;;;;1.33;1.33;;;;;;;10.35;93.14;99073.31;5050150;28;20265;-74
2022/11/05 01:55:45;;;;;;;1.10;1.00;;;;;;;10.33;93.61;99064.00;5050334;28;20204;-73
2022/11/05 01:58:16;;;;;;;0.50;0.50;;;;;;;10.31;94.11;99066.59;5050422;28;20197;-73
2022/11/05 02:00:43;;;;;;;1.17;1.17;;;;;;;10.34;94.08;99056.25;5050214;28;20208;-74
2022/11/05 02:03:12;;;;;;;0.60;0.60;;;;;;;10.31;95.09;99066.59;5049872;28;20200;-73
2022/11/05 02:05:41;;;;;;;0.70;0.70;;;;;;;10.22;95.43;99071.22;5050203;28;20196;-73
2022/11/05 02:08:16;;;;;;;0.40;0.40;;;;;;;10.09;96.74;99064.78;5049972;28;20308;-73
2022/11/05 02:10:45;;;;;;;0.70;0.70;;;;;;;10.12;96.17;99064.69;5049926;28;20208;-73
2022/11/05 02:13:12;;;;;;;1.30;1.30;;;;;;;10.11;96.47;99053.63;5048801;28;20346;-73
2022/11/05 02:15:46;;;;;;;0.50;0.50;;;;;;;10.12;96.63;99055.28;5050057;28;20286;-73
2022/11/05 02:18:24;;;;;;;0.50;0.50;;;;;;;10.10;96.74;99057.06;5050230;28;20656;-73
2022/11/05 02:21:06;;;;;;;1.70;1.43;;;;;;;10.12;96.17;99055.28;5050020;28;20258;-73
2022/11/05 02:24:02;;;;;;;0.70;0.70;;;;;;;10.13;96.29;99056.13;5049480;28;20204;-73
2022/11/05 02:27:02;;;;;;;0.87;0.87;;;;;;;10.16;96.23;99050.94;5050070;28;20228;-74
2022/11/05 02:30:03;;;;;;;0.60;0.60;;;;;;;10.19;95.45;99050.81;5049466;28;20308;-74
2022/11/05 02:32:50;;;;;;;0.83;0.83;;;;;;;10.17;95.36;99057.72;5049130;28;20233;-73
2022/11/05 02:35:29;;;;;;;0.70;0.70;;;;;;;10.17;95.70;99053.44;5040327;28;20208;-74
2022/11/05 02:38:07;;;;;;;0.70;0.70;;;;;;;10.14;95.23;99053.56;5049389;28;20219;-73
2022/11/05 02:40:45;;;;;;;0.60;0.60;;;;;;;9.98;95.12;99030.13;5049319;28;20197;-74
2022/11/05 02:43:22;;;;;;;0.50;0.50;;;;;;;10.11;95.35;99052.78;5050047;28;20189;-74
2022/11/05 02:45:57;;;;;;;0.73;0.73;;;;;;;10.06;95.00;99046.97;5050082;28;20200;-73
2022/11/05 02:48:33;;;;;;;0.70;0.70;;;;;;;10.03;94.39;99053.03;5049379;28;20223;-74
2022/11/05 02:51:08;;;;;;;0.90;0.90;;;;;;;9.91;94.02;99056.84;5049785;28;20193;-74
2022/11/05 02:53:45;;;;;;;0.60;0.60;;;;;;;9.76;93.41;99041.13;5052018;28;20258;-74
2022/11/05 02:56:18;;;;;;;0.80;0.80;;;;;;;9.89;93.20;99060.31;5053605;28;20660;-74
2022/11/05 02:58:45;;;;;;;0.90;0.90;;;;;;;9.83;92.57;99052.84;5053414;28;20661;-74
2022/11/05 03:01:12;;;;;;;0.60;0.60;;;;;;;9.64;92.84;99034.69;5052918;28;20208;-73
2022/11/05 03:03:42;;;;;;;0.60;0.60;;;;;;;9.84;93.18;99060.50;5053467;28;20204;-74
2022/11/05 03:06:23;;;;;;;0.70;0.70;;;;;;;9.84;93.19;99064.78;5053626;28;20256;-74
2022/11/05 03:09:02;;;;;;;0.87;0.87;;;;;;;9.84;93.52;99064.78;5052100;28;20216;-74
2022/11/05 03:11:33;;;;;;;0.80;0.80;;;;;;;9.67;93.71;99049.09;5052578;28;20200;-74
2022/11/05 03:14:08;;;;;;;0.63;0.63;;;;;;;9.81;93.73;99064.88;5052895;28;20650;-74
2022/11/05 03:16:40;;;;;;;1.63;0.87;;;;;;;9.72;94.65;99066.00;5053102;28;20207;-74
2022/11/05 03:19:15;;;;;;;1.00;1.00;;;;;;;9.74;94.55;99063.38;5052864;28;20197;-74
2022/11/05 03:21:47;;;;;;;0.60;0.60;;;;;;;9.68;94.16;99061.03;5052668;28;20219;-74
2022/11/05 03:24:18;;;;;;;1.23;1.23;;;;;;;9.72;94.38;99060.06;5054931;28;20201;-73
2022/11/05 03:26:51;;;;;;;0.53;0.53;;;;;;;9.70;94.05;99059.25;5052800;28;20665;-74
2022/11/05 03:29:22;;;;;;;0.83;0.83;;;;;;;9.62;93.88;99049.28;5052659;28;20243;-74
2022/11/05 03:31:51;;;;;;;1.00;1.00;;;;;;;9.70;94.11;99051.56;5051739;28;20211;-74
2022/11/05 03:34:25;;;;;;;0.50;0.50;;;;;;;9.57;94.52;99066.47;5051676;28;20204;-74
2022/11/05 03:36:55;;;;;;;0.80;0.80;;;;;;;9.57;95.00;99063.06;5052650;28;20570;-74
2022/11/05 03:39:28;;;;;;;0.87;0.87;;;;;;;9.61;94.13;99067.22;5052768;28;20193;-73
2022/11/05 03:41:57;;;;;;;1.17;1.10;;;;;;;9.61;94.10;99062.09;5050958;28;20248;-74
2022/11/05 03:44:27;;;;;;;0.70;0.70;;;;;;;9.49;93.62;99048.00;5052521;28;20200;-73
2022/11/05 03:46:58;;;;;;;0.50;0.50;;;;;;;9.49;93.33;99051.38;5051885;28;20197;-74
2022/11/05 03:49:32;;;;;;;0.60;0.60;;;;;;;9.54;93.59;99060.63;5052450;28;20208;-74
2022/11/05 03:52:04;;;;;;;0.90;0.90;;;;;;;9.56;92.99;99064.00;5052567;28;20692;-74
2022/11/05 03:54:32;;;;;;;0.60;0.60;;;;;;;9.54;93.11;99065.75;5052168;28;20204;-73
2022/11/05 03:57:05;;;;;;;0.60;0.60;;;;;;;9.53;93.37;99058.97;5052161;28;20193;-67
2022/11/05 03:59:40;;;;;;;0.93;0.93;;;;;;;9.45;93.19;99057.47;5051641;28;20193;-67
2022/11/05 04:02:07;;;;;;;0.73;0.73;;;;;;;9.42;93.08;99055.00;5052238;28;20203;-68
2022/11/05 04:04:35;;;;;;;1.63;1.53;;;;;;;9.43;92.99;99046.44;5051156;28;20201;-67
2022/11/05 04:15:16;;;;;;;0.90;0.90;;;;;;;9.30;93.68;99068.19;5051855;28;20226;-68
2022/11/05 04:17:41;;;;;;;0.73;0.73;;;;;;;9.21;94.51;99065.06;5051596;28;20200;-67
2022/11/05 04:25:49;;;;;;;0.90;0.90;;;;;;;9.11;95.15;99072.16;5050810;28;20277;-67
2022/11/05 04:28:16;;;;;;;0.67;0.67;;;;;;;9.05;94.72;99068.97;5051717;28;20216;-67
2022/11/05 04:30:43;;;;;;;0.60;0.60;;;;;;;9.01;94.86;99070.78;5050473;28;20211;-67
2022/11/05 04:33:11;;;;;;;0.60;0.60;;;;;;;8.96;95.24;99082.84;5051146;28;20677;-67
2022/11/05 04:35:42;;;;;;;0.60;0.60;;;;;;;8.94;94.89;99076.94;5051067;28;20200;-67
2022/11/05 04:38:13;;;;;;;0.60;0.60;;;;;;;8.75;94.55;99068.13;5049146;28;20208;-67
2022/11/05 04:40:40;;;;;;;1.13;0.77;;;;;;;8.85;94.48;99090.78;5051263;28;20239;-68
2022/11/05 04:43:08;;;;;;;0.60;0.60;;;;;;;8.84;94.67;99093.41;5048550;28;20201;-67
2022/11/05 04:45:36;;;;;;;1.20;1.10;;;;;;;8.80;94.29;99087.53;5051280;28;20205;-68
2022/11/05 04:48:03;;;;;;;1.20;1.20;;;;;;;8.85;93.92;99084.88;5051505;28;20201;-67
2022/11/05 04:50:30;;;;;;;0.57;0.57;;;;;;;8.81;93.81;99088.38;5051263;28;20243;-67
2022/11/05 04:52:59;;;;;;;1.10;1.10;;;;;;;8.81;94.25;99103.72;5052495;28;20604;-67
2022/11/05 04:55:26;;;;;;;0.67;0.67;;;;;;;8.79;93.76;99105.47;5051033;28;20228;-67
2022/11/05 04:57:54;;;;;;;0.70;0.70;;;;;;;8.75;94.37;99098.78;5051120;28;20254;-67
2022/11/05 05:00:22;;;;;;;0.60;0.60;;;;;;;8.68;94.24;99084.50;5051165;28;20204;-67
2022/11/05 05:02:49;;;;;;;0.50;0.50;;;;;;;8.75;94.74;99091.13;5051549;28;20195;-67
2022/11/05 05:05:16;;;;;;;0.50;0.50;;;;;;;8.75;94.19;99099.63;5051786;28;20689;-68
2022/11/05 05:07:43;;;;;;;0.60;0.60;;;;;;;8.74;94.72;99104.75;5051377;28;20240;-67
2022/11/05 05:10:12;;;;;;;0.57;0.57;;;;;;;8.78;94.51;99108.91;5049521;28;20607;-67
2022/11/05 05:12:39;;;;;;;0.70;0.70;;;;;;;8.79;94.41;99115.69;5050469;28;20201;-67
2022/11/05 05:15:06;;;;;;;0.93;0.93;;;;;;;8.81;94.60;99111.38;5050325;28;20232;-67
2022/11/05 05:17:34;;;;;;;1.67;1.57;;;;;;;8.82;94.29;99110.53;5050830;28;20201;-68
2022/11/05 05:22:51;;;;;;;0.70;0.70;;;;;;;8.80;94.65;99123.31;5050566;28;20210;-67
2022/11/05 05:25:19;;;;;;;0.57;0.57;;;;;;;8.80;95.62;99127.59;5048357;28;20216;-68
2022/11/05 05:27:46;;;;;;;0.60;0.60;;;;;;;8.77;96.06;99125.97;5048496;28;20208;-67
2022/11/05 05:30:13;;;;;;;0.50;0.50;;;;;;;8.76;96.13;99126.00;5048837;28;20225;-67
2022/11/05 05:32:40;;;;;;;0.80;0.80;;;;;;;8.76;96.33;99126.84;5044973;28;20216;-68
2022/11/05 05:35:08;;;;;;;0.50;0.50;;;;;;;8.77;96.32;99128.53;5047675;28;20338;-67
2022/11/05 05:37:37;;;;;;;0.77;0.77;;;;;;;8.81;96.74;99131.84;5047646;28;20208;-67
2022/11/05 05:40:04;;;;;;;0.77;0.77;;;;;;;8.77;96.46;99130.25;5045889;28;20205;-67
2022/11/05 05:42:32;;;;;;;0.80;0.80;;;;;;;8.78;97.62;99134.47;5047187;28;20212;-68
2022/11/05 05:44:59;;;;;;;0.60;0.60;;;;;;;8.84;96.82;99132.59;5044176;28;20207;-68
2022/11/05 05:47:26;;;;;;;0.47;0.47;;;;;;;8.87;97.34;99129.09;5046577;28;20219;-68
2022/11/05 05:49:53;;;;;;;0.70;0.70;;;;;;;8.87;97.10;99129.94;5048400;28;20220;-67
2022/11/05 05:52:20;;;;;;;1.13;1.13;;;;;;;8.84;97.63;99121.53;5049638;28;20201;-67
2022/11/05 05:54:46;;;;;;;0.50;0.50;;;;;;;8.95;98.30;99127.16;5050354;28;20676;-67
2022/11/05 05:57:13;;;;;;;0.60;0.60;;;;;;;8.99;98.74;99133.88;5050279;28;20215;-67
2022/11/05 05:59:41;;;;;;;0.80;0.80;;;;;;;9.02;98.70;99126.13;5050027;28;20196;-67
2022/11/05 06:02:09;;;;;;;0.80;0.80;;;;;;;9.04;99.14;99132.03;5050222;28;20204;-67
2022/11/05 06:04:36;;;;;;;0.57;0.57;;;;;;;9.11;99.87;99125.84;5049630;28;20700;-67
2022/11/05 06:07:03;;;;;;;0.80;0.80;;;;;;;9.16;99.71;99128.28;5049855;28;20196;-67
2022/11/05 06:09:30;;;;;;;1.13;1.13;;;;;;;9.20;100.00;99132.44;5049778;28;20274;-67
2022/11/05 06:11:56;;;;;;;0.80;0.80;;;;;;;9.27;100.00;99133.94;5050149;28;20193;-67
2022/11/05 06:14:23;;;;;;;0.80;0.80;;;;;;;9.23;100.00;99138.31;5049416;28;20239;-68
2022/11/05 06:16:51;;;;;;;1.87;1.83;;;;;;;9.28;100.00;99145.81;5049530;28;20200;-67
2022/11/05 06:19:18;;;;;;;0.50;0.50;;;;;;;9.35;100.00;99148.16;5048220;28;20197;-67
2022/11/05 06:21:45;;;;;;;0.60;0.60;;;;;;;9.37;100.00;99145.59;5049825;28;20235;-68
2022/11/05 06:24:12;;;;;;;0.53;0.53;;;;;;;9.36;100.00;99152.41;5049107;28;20205;-67
2022/11/05 06:26:41;;;;;;;0.47;0.47;;;;;;;9.42;100.00;99159.91;5049065;28;20201;-67
2022/11/05 06:29:08;;;;;;;0.53;0.53;;;;;;;9.46;100.00;99148.72;5053059;28;20693;-67
2022/11/05 06:31:35;;;;;;;0.47;0.47;;;;;;;9.52;100.00;99164.75;5054237;28;20293;-67
2022/11/05 06:34:03;;;;;;;1.80;0.97;;;;;;;9.57;100.00;99157.75;5053317;28;20201;-67
2022/11/05 06:36:30;;;;;;;0.70;0.70;;;;;;;9.64;100.00;99166.94;5053980;28;20212;-67
2022/11/05 06:38:57;;;;;;;2.07;1.97;;;;;;;9.73;100.00;99166.66;5053692;28;20203;-67
2022/11/05 06:41:24;;;;;;;0.80;0.80;;;;;;;9.81;100.00;99169.81;5053984;28;20688;-67
2022/11/05 06:43:50;;;;;;;1.07;1.03;;;;;;;9.90;100.00;99166.97;5053532;28;20200;-67
2022/11/05 06:46:18;;;;;;;0.93;0.90;;;;;;;9.96;100.00;99171.91;5053406;28;20204;-67
2022/11/05 06:48:45;;;;;;;0.80;0.80;;;;;;;10.01;100.00;99170.06;5051648;28;20668;-67
2022/11/05 06:51:13;;;;;;;1.30;1.20;;;;;;;10.08;100.00;99166.38;5051208;28;20630;-67
2022/11/05 06:53:40;;;;;;;0.70;0.70;;;;;;;10.19;100.00;99163.53;5051586;28;20196;-67
2022/11/05 06:56:08;;;;;;;0.50;0.50;;;;;;;10.26;100.00;99162.44;5050955;28;20212;-67
2022/11/05 06:58:34;;;;;;;1.23;1.23;;;;;;;10.32;100.00;99159.69;5051654;28;20652;-67
2022/11/05 07:01:02;;;;;;;0.60;0.60;;;;;;;10.36;100.00;99156.13;5056544;28;20200;-67
2022/11/05 07:03:29;;;;;;;0.70;0.70;;;;;;;10.44;100.00;99159.25;5052059;28;20204;-67
2022/11/05 07:05:58;;;;;;;0.60;0.60;;;;;;;10.51;100.00;99160.75;5048598;28;20200;-68
2022/11/05 07:08:26;;;;;;;0.50;0.50;;;;;;;10.60;100.00;99162.19;5056155;28;20283;-67
2022/11/05 07:10:53;;;;;;;0.43;0.43;;;;;;;10.73;100.00;99153.16;5053111;28;20231;-67
2022/11/05 07:13:20;;;;;;;0.60;0.60;;;;;;;10.78;100.00;99147.00;5052170;28;20204;-68
2022/11/05 07:15:47;;;;;;;0.67;0.67;;;;;;;10.90;100.00;99149.13;5051180;28;20263;-67
2022/11/05 07:18:14;;;;;;;0.40;0.40;;;;;;;11.00;100.00;99149.63;5053731;28;20212;-67
2022/11/05 07:20:40;;;;;;;0.90;0.90;;;;;;;11.09;100.00;99144.16;5049943;28;20216;-68
2022/11/05 07:23:10;;;;;;;0.60;0.60;;;;;;;11.20;100.00;99152.31;5050934;28;20205;-68
2022/11/05 07:25:39;;;;;;;0.73;0.73;;;;;;;11.33;100.00;99157.81;5049748;28;20212;-68
2022/11/05 07:28:07;;;;;;;0.57;0.57;;;;;;;11.51;100.00;99154.56;5047418;28;20212;-68
2022/11/05 07:30:35;;;;;;;0.67;0.67;;;;;;;11.67;100.00;99147.94;5049453;28;20232;-68
2022/11/05 07:33:02;;;;;;;0.80;0.80;;;;;;;11.82;100.00;99146.56;5052058;28;20633;-68
2022/11/05 07:35:29;;;;;;;0.70;0.70;;;;;;;11.97;100.00;99136.53;5050543;28;20209;-68
2022/11/05 07:37:56;;;;;;;1.93;0.90;;;;;;;11.99;100.00;99114.16;5050303;28;20572;-68
2022/11/05 07:40:26;;;;;;;0.67;0.67;;;;;;;12.31;100.00;99123.13;5048314;28;20201;-68
2022/11/05 07:42:55;;;;;;;0.60;0.60;;;;;;;12.46;100.00;99119.94;5051229;28;20232;-68
2022/11/05 07:45:23;;;;;;;1.07;1.07;;;;;;;12.57;100.00;99110.00;5050981;28;20662;-68
2022/11/05 07:47:52;;;;;;;0.90;0.90;;;;;;;12.67;100.00;99104.47;5051421;28;20209;-68
2022/11/05 07:50:20;;;;;;;0.50;0.50;;;;;;;12.70;100.00;99115.44;5047830;28;20707;-68
2022/11/05 07:52:47;;;;;;;0.90;0.90;;;;;;;12.88;100.00;99119.81;5049566;28;20205;-68
2022/11/05 07:55:15;;;;;;;0.90;0.90;;;;;;;13.11;100.00;99123.97;5044921;28;20205;-68
2022/11/05 07:57:42;;;;;;;0.57;0.57;;;;;;;13.34;100.00;99110.91;5047680;28;20207;-68
2022/11/05 08:00:14;;;;;;;0.80;0.80;;;;;;;13.43;99.81;99120.78;5051314;28;20592;-68
2022/11/05 08:02:40;;;;;;;0.97;0.97;;;;;;;13.57;99.13;99118.38;5054177;28;20246;-68
2022/11/05 08:05:08;;;;;;;0.50;0.50;;;;;;;13.72;98.64;99118.56;5050993;28;20206;-67
2022/11/05 08:07:35;;;;;;;1.23;1.13;;;;;;;13.83;98.36;99114.56;5048843;28;20628;-68
2022/11/05 08:10:03;;;;;;;0.60;0.60;;;;;;;13.97;97.90;99111.34;5046614;28;20573;-67
2022/11/05 08:12:31;;;;;;;0.80;0.80;;;;;;;14.06;97.16;99113.47;5049683;28;20205;-68
2022/11/05 08:14:57;;;;;;;0.50;0.50;;;;;;;14.11;96.96;99109.78;5049591;28;20318;-69
2022/11/05 08:17:26;;;;;;;0.70;0.70;;;;;;;14.15;96.08;99110.44;5047348;28;20210;-68
2022/11/05 08:19:53;;;;;;;1.70;0.90;;;;;;;14.28;95.19;99098.59;5043110;28;20208;-71
2022/11/05 08:22:19;;;;;;;0.83;0.83;;;;;;;14.38;94.46;99112.72;5045880;28;20197;-69
2022/11/05 08:24:46;;;;;;;0.60;0.60;;;;;;;14.37;95.10;99111.09;5045701;28;20204;-68
2022/11/05 08:27:13;;;;;;;2.47;1.43;;;;;;;14.50;94.30;99112.13;5039675;28;20201;-69
2022/11/05 08:29:40;;;;;;;1.00;1.00;;;;;;;14.65;94.24;99108.78;5049871;28;20203;-68
2022/11/05 08:32:07;;;;;;;0.53;0.53;;;;;;;14.70;94.72;99108.53;5050627;28;20205;-68
2022/11/05 08:34:35;;;;;;;1.03;1.03;;;;;;;14.91;93.09;99116.91;5046632;28;20219;-68
2022/11/05 08:37:02;;;;;;;0.50;0.50;;;;;;;15.11;92.90;99114.13;5048643;28;20196;-68
2022/11/05 08:39:29;;;;;;;0.50;0.50;;;;;;;15.28;91.88;99111.47;5051168;28;20208;-68
2022/11/05 08:41:56;;;;;;;0.50;0.50;;;;;;;15.38;91.02;99107.44;5051790;28;20202;-68
2022/11/05 08:44:23;;;;;;;0.60;0.60;;;;;;;15.55;90.24;99115.16;5051320;28;20196;-68
2022/11/05 08:46:49;;;;;;;0.50;0.50;;;;;;;15.59;89.70;99100.31;5051289;28;20207;-69
2022/11/05 08:49:16;;;;;;;1.10;1.10;;;;;;;15.60;89.39;99108.00;5049868;28;20684;-69
2022/11/05 08:51:45;;;;;;;0.50;0.50;;;;;;;15.64;89.34;99104.31;5050786;28;20266;-68
2022/11/05 08:54:12;;;;;;;1.00;1.00;;;;;;;15.72;90.08;99096.97;5051198;28;20193;-69
2022/11/05 08:56:39;;;;;;;0.70;0.70;;;;;;;15.92;88.95;99100.19;5049437;28;20311;-70
2022/11/05 08:59:06;;;;;;;0.60;0.60;;;;;;;16.01;88.23;99089.31;5049167;28;20455;-68
2022/11/05 09:01:34;;;;;;;0.90;0.70;;;;;;;15.99;88.21;99081.69;5049166;28;20855;-69
2022/11/05 09:04:00;;;;;;;0.57;0.57;;;;;;;16.30;87.38;99091.06;5050886;28;20694;-69
2022/11/05 09:06:28;;;;;;;0.57;0.57;;;;;;;16.33;86.66;99083.13;5048646;28;20287;-69
2022/11/05 09:08:56;;;;;;;0.70;0.70;;;;;;;16.47;85.17;99088.34;5051218;28;20196;-69
2022/11/05 09:11:23;;;;;;;0.67;0.67;;;;;;;16.63;85.06;99083.13;5051246;28;20220;-70
2022/11/05 09:13:50;;;;;;;0.70;0.70;;;;;;;16.73;84.59;99079.06;5045226;28;20216;-69
2022/11/05 09:16:20;;;;;;;0.60;0.60;;;;;;;16.89;84.84;99081.53;5048617;28;20193;-69
2022/11/05 09:18:47;;;;;;;0.50;0.50;;;;;;;17.05;84.48;99084.84;5048959;28;20620;-69
2022/11/05 09:21:14;;;;;;;0.50;0.50;;;;;;;16.93;83.73;99077.84;5050043;28;20197;-70
2022/11/05 09:23:41;;;;;;;0.80;0.80;;;;;;;16.93;83.43;99077.84;5050209;28;20200;-69
2022/11/05 09:26:10;;;;;;;0.50;0.50;;;;;;;16.75;84.28;99085.78;5050512;28;20608;-69
2022/11/05 09:28:37;;;;;;;0.60;0.60;;;;;;;16.90;85.20;99071.06;5050463;28;20192;-69
2022/11/05 09:31:07;;;;;;;1.03;1.03;;;;;;;17.06;82.97;99078.75;5051069;28;20219;-69
2022/11/05 09:33:35;;;;;;;0.53;0.53;;;;;;;17.04;84.00;99068.47;5050790;28;20627;-69
2022/11/05 09:36:02;;;;;;;0.57;0.57;;;;;;;17.07;83.00;99064.88;5050855;28;20201;-69
2022/11/05 09:38:29;;;;;;;0.73;0.73;;;;;;;17.13;83.08;99065.31;5050952;28;20231;-70
2022/11/05 09:40:59;;;;;;;0.83;0.83;;;;;;;16.93;82.54;99068.28;5050679;28;20200;-69
2022/11/05 09:43:33;;;;;;;0.63;0.63;;;;;;;16.96;83.19;99056.94;5050402;28;20219;-69
2022/11/05 09:46:07;;;;;;;0.60;0.60;;;;;;;17.08;82.79;99051.00;5050771;28;20191;-69
2022/11/05 09:48:35;;;;;;;0.80;0.80;;;;;;;17.09;83.21;99052.66;5050320;28;20287;-70
2022/11/05 09:51:04;;;;;;;5.00;1.70;;;;;;;17.10;83.62;99043.94;5050164;28;20285;-69
2022/11/05 09:53:31;;;;;;;2.07;1.97;;;;;;;17.25;82.87;99049.00;5050841;28;20677;-69
2022/11/05 09:56:00;;;;;;;0.60;0.60;;;;;;;17.36;82.27;99040.56;5050199;28;20200;-69
2022/11/05 09:58:37;;;;;;;0.50;0.50;;;;;;;17.46;81.13;99035.63;5049626;28;20562;-69
2022/11/05 10:01:11;;;;;;;0.70;0.70;;;;;;;17.53;82.00;99032.56;5050546;28;20205;-70
2022/11/05 10:03:46;;;;;;;0.40;0.40;;;;;;;17.60;81.52;99020.91;5053282;28;20270;-69
2022/11/05 10:06:19;;;;;;;0.73;0.73;;;;;;;17.63;81.94;99027.63;5052308;28;20203;-69
2022/11/05 10:08:49;;;;;;;0.80;0.80;;;;;;;17.73;81.46;99024.34;5054917;28;20283;-70
2022/11/05 10:11:20;;;;;;;1.20;1.20;;;;;;;17.65;81.98;99021.41;5054626;28;20213;-65
2022/11/05 10:13:55;;;;;;;0.90;0.90;;;;;;;17.69;81.54;99027.22;5053762;28;20197;-64
2022/11/05 10:16:25;;;;;;;0.67;0.67;;;;;;;17.71;81.73;99018.41;5051869;28;20203;-64
2022/11/05 10:18:57;;;;;;;0.97;0.93;;;;;;;17.75;81.70;99017.28;5054279;28;20204;-64
2022/11/05 10:21:24;;;;;;;0.53;0.53;;;;;;;17.67;81.74;99014.34;5054717;28;20200;-64
2022/11/05 10:23:51;;;;;;;1.30;1.30;;;;;;;17.72;82.58;98994.16;5054494;28;20200;-64
2022/11/05 10:26:21;;;;;;;0.70;0.70;;;;;;;17.97;81.87;99002.91;5051445;28;20201;-65
2022/11/05 10:28:51;;;;;;;1.10;1.10;;;;;;;18.02;81.00;99016.41;5054585;28;20546;-66
2022/11/05 10:31:20;;;;;;;1.20;1.20;;;;;;;17.94;80.53;99003.09;5054057;28;20216;-65
2022/11/05 10:33:50;;;;;;;2.17;1.00;;;;;;;17.86;81.13;99013.19;5053356;28;20291;-64
2022/11/05 10:36:21;;;;;;;0.60;0.60;;;;;;;17.93;80.74;99015.28;5054339;28;20208;-64
2022/11/05 10:38:48;;;;;;;1.13;1.13;;;;;;;17.96;80.88;99003.84;5054279;28;20658;-64
2022/11/05 10:41:31;;;;;;;0.70;0.70;;;;;;;18.04;80.28;99004.16;5054046;28;20276;-64
2022/11/05 10:44:09;;;;;;;0.50;0.50;;;;;;;18.00;80.96;99002.69;5054396;28;20208;-64
2022/11/05 10:46:40;;;;;;;0.40;0.40;;;;;;;17.99;80.88;99004.50;5053970;28;20232;-64
2022/11/05 10:49:19;;;;;;;0.50;0.50;;;;;;;18.11;80.77;98997.63;5053739;28;20208;-64
2022/11/05 10:51:47;;;;;;;0.53;0.53;;;;;;;18.25;80.61;98984.56;5053744;28;20224;-64
2022/11/05 10:54:18;;;;;;;0.50;0.50;;;;;;;18.34;79.55;98995.16;5053605;28;20200;-64
2022/11/05 10:56:45;;;;;;;1.03;1.03;;;;;;;18.31;78.61;98984.16;5054139;28;20664;-64
2022/11/05 10:59:24;;;;;;;1.57;1.57;;;;;;;18.35;79.12;98985.59;5053672;28;20203;-64
2022/11/05 11:02:03;;;;;;;0.50;0.50;;;;;;;18.46;79.27;98967.53;5053131;28;20193;-64
2022/11/05 11:04:31;;;;;;;3.40;0.83;;;;;;;18.55;77.87;98986.84;5053565;28;20209;-65
2022/11/05 11:06:59;;;;;;;0.60;0.60;;;;;;;18.44;78.13;98969.41;5052649;28;20197;-66
2022/11/05 11:09:28;;;;;;;0.50;0.50;;;;;;;18.42;79.23;98963.47;5052624;28;20684;-65
2022/11/05 11:12:07;;;;;;;1.70;1.23;;;;;;;18.51;78.58;98965.47;5053606;28;20220;-66
2022/11/05 11:14:35;;;;;;;0.80;0.80;;;;;;;18.56;78.59;98960.78;5051941;28;20236;-65
2022/11/05 11:17:26;;;;;;;0.50;0.50;;;;;;;18.49;78.75;98933.56;5052365;28;20201;-65
2022/11/05 11:20:18;;;;;;;1.57;1.57;;;;;;;18.55;78.60;98950.50;5053600;28;20686;-65
2022/11/05 11:22:59;;;;;;;0.50;0.50;;;;;;;18.64;77.97;98961.06;5053495;28;20669;-65
2022/11/05 11:25:29;;;;;;;1.00;0.97;;;;;;;18.58;76.98;98940.72;5053036;28;20205;-66
2022/11/05 11:28:01;;;;;;;0.67;0.67;;;;;;;18.58;77.57;98940.72;5053430;28;20675;-65
2022/11/05 11:30:29;;;;;;;1.10;1.10;;;;;;;18.64;77.81;98945.50;5052855;28;20201;-66
2022/11/05 11:33:04;;;;;;;2.60;1.13;;;;;;;18.73;77.11;98931.88;5052995;28;20211;-65
2022/11/05 11:35:31;;;;;;;0.67;0.67;;;;;;;18.71;77.19;98915.56;5052890;28;20202;-65
2022/11/05 11:37:59;;;;;;;0.70;0.70;;;;;;;18.95;76.36;98938.13;5052914;28;20197;-65
2022/11/05 11:40:31;;;;;;;0.50;0.50;;;;;;;18.88;76.88;98928.19;5052877;28;20280;-65
2022/11/05 11:43:03;;;;;;;0.40;0.40;;;;;;;18.96;76.20;98924.22;5052638;28;20192;-65
2022/11/05 11:45:35;;;;;;;0.70;0.70;;;;;;;19.01;76.37;98927.31;5052862;28;20206;-65
2022/11/05 11:48:05;;;;;;;0.50;0.50;;;;;;;19.03;75.37;98933.25;5052996;28;20195;-65
2022/11/05 11:50:35;;;;;;;0.60;0.60;;;;;;;19.06;75.18;98940.81;5052689;28;20626;-65
2022/11/05 11:53:27;;;;;;;1.00;1.00;;;;;;;19.02;75.49;98939.38;5052659;28;20244;-65
2022/11/05 11:56:00;;;;;;;0.70;0.70;;;;;;;18.90;75.23;98924.66;5045807;28;20199;-65
2022/11/05 11:58:43;;;;;;;0.73;0.73;;;;;;;19.00;75.60;98910.88;5052711;28;20255;-65
2022/11/05 12:01:42;;;;;;;0.50;0.50;;;;;;;19.14;74.56;98928.06;5051010;28;20514;-75
2022/11/05 12:04:22;;;;;;;0.70;0.70;;;;;;;19.16;74.48;98931.41;5051092;28;20662;-75
2022/11/05 12:07:01;;;;;;;1.07;1.07;;;;;;;19.09;74.41;98922.41;5049547;28;20203;-75
2022/11/05 12:09:42;;;;;;;0.83;0.83;;;;;;;19.25;74.10;98917.75;5049587;28;20630;-75
2022/11/05 12:12:12;;;;;;;1.53;1.50;;;;;;;19.17;74.38;98925.25;5049157;28;20573;-76
2022/11/05 12:14:48;;;;;;;1.20;1.20;;;;;;;19.11;74.75;98907.50;5049952;28;20235;-70
2022/11/05 12:17:28;;;;;;;0.73;0.73;;;;;;;19.21;73.49;98924.09;5048221;28;20200;-70
2022/11/05 12:20:28;;;;;;;0.60;0.60;;;;;;;19.31;73.67;98917.28;5048286;28;20671;-70
2022/11/05 12:23:21;;;;;;;0.60;0.60;;;;;;;19.39;73.21;98922.75;5050324;28;20201;-70
2022/11/05 12:25:57;;;;;;;0.60;0.60;;;;;;;19.45;72.15;98931.91;5046140;28;20728;-74
2022/11/05 12:28:53;;;;;;;3.00;0.60;;;;;;;19.44;72.29;98931.06;5049759;28;20287;-75